createdAt,value
2018-07-09T00:00:56.055Z,16.20
2018-07-09T00:03:24.369Z,16.20
2018-07-09T00:05:52.710Z,16.20
2018-07-09T00:08:21.095Z,16.20
2018-07-09T00:11:02.873Z,16.20
2018-07-09T00:13:32.153Z,16.20
2018-07-09T00:16:01.685Z,16.10
2018-07-09T00:18:30.042Z,16.10
2018-07-09T00:21:01.366Z,16.10
2018-07-09T00:23:29.823Z,16.10
2018-07-09T00:25:58.537Z,16.00
2018-07-09T00:28:26.949Z,16.00
2018-07-09T00:30:55.266Z,15.90
2018-07-09T00:33:23.757Z,15.80
2018-07-09T00:35:52.305Z,15.90
2018-07-09T00:38:21.075Z,15.80
2018-07-09T00:40:49.341Z,15.90
2018-07-09T00:43:17.765Z,15.90
2018-07-09T00:48:14.515Z,15.80
2018-07-09T00:50:42.920Z,15.70
2018-07-09T00:53:11.278Z,15.70
2018-07-09T00:55:39.696Z,15.80
2018-07-09T00:58:08.058Z,15.70
2018-07-09T01:03:04.451Z,15.60
2018-07-09T01:05:32.786Z,15.50
2018-07-09T01:08:01.267Z,15.60
2018-07-09T01:10:29.591Z,15.60
2018-07-09T01:12:58.398Z,15.70
2018-07-09T01:15:26.830Z,15.60
2018-07-09T01:17:55.148Z,15.60
2018-07-09T01:20:23.706Z,15.70
2018-07-09T01:22:52.377Z,15.60
2018-07-09T01:25:20.958Z,15.60
2018-07-09T01:27:49.284Z,15.60
2018-07-09T01:30:17.694Z,15.60
2018-07-09T01:32:46.137Z,15.50
2018-07-09T01:35:14.742Z,15.60
2018-07-09T01:37:43.640Z,15.60
2018-07-09T01:40:12.018Z,15.60
2018-07-09T01:42:40.300Z,15.60
2018-07-09T01:45:08.832Z,15.50
2018-07-09T01:47:37.171Z,15.60
2018-07-09T01:50:05.535Z,15.70
2018-07-09T01:52:33.961Z,15.70
2018-07-09T01:55:03.359Z,15.60
2018-07-09T01:57:31.663Z,15.60
2018-07-09T02:00:00.067Z,15.50
2018-07-09T02:02:28.503Z,15.50
2018-07-09T02:07:25.013Z,15.50
2018-07-09T02:09:53.282Z,15.50
2018-07-09T02:12:21.824Z,15.50
2018-07-09T02:14:50.172Z,15.50
2018-07-09T02:17:18.507Z,15.50
2018-07-09T02:22:15.078Z,15.40
2018-07-09T02:24:43.427Z,15.40
2018-07-09T02:27:12.000Z,15.40
2018-07-09T02:29:40.394Z,15.40
2018-07-09T02:32:08.731Z,15.50
2018-07-09T02:34:37.023Z,15.50
2018-07-09T02:37:05.479Z,15.50
2018-07-09T02:39:34.084Z,15.50
2018-07-09T02:42:02.420Z,15.50
2018-07-09T02:44:30.710Z,15.50
2018-07-09T02:46:58.990Z,15.40
2018-07-09T02:49:27.407Z,15.40
2018-07-09T02:51:55.896Z,15.30
2018-07-09T02:54:24.238Z,15.30
2018-07-09T02:56:53.141Z,15.40
2018-07-09T02:59:21.411Z,15.40
2018-07-09T03:01:49.717Z,15.40
2018-07-09T03:04:18.075Z,15.40
2018-07-09T03:06:46.456Z,15.50
2018-07-09T03:09:14.808Z,15.40
2018-07-09T03:11:43.088Z,15.50
2018-07-09T03:14:11.476Z,15.40
2018-07-09T03:16:39.758Z,15.40
2018-07-09T03:19:08.256Z,15.40
2018-07-09T03:21:36.544Z,15.40
2018-07-09T03:24:04.969Z,15.50
2018-07-09T03:26:33.310Z,15.50
2018-07-09T03:29:02.241Z,15.40
2018-07-09T03:31:30.597Z,15.40
2018-07-09T03:33:58.925Z,15.50
2018-07-09T03:36:27.299Z,15.50
2018-07-09T03:41:23.862Z,15.40
2018-07-09T03:43:52.323Z,15.40
2018-07-09T03:46:20.683Z,15.40
2018-07-09T03:48:49.078Z,15.40
2018-07-09T03:51:17.479Z,15.40
2018-07-09T03:53:46.314Z,15.40
2018-07-09T03:56:14.567Z,15.40
2018-07-09T03:58:42.931Z,15.40
2018-07-09T04:01:11.456Z,15.40
2018-07-09T04:03:39.817Z,15.50
2018-07-09T04:06:08.196Z,15.50
2018-07-09T04:08:36.535Z,15.50
2018-07-09T04:13:33.329Z,15.50
2018-07-09T04:16:01.799Z,15.60
2018-07-09T04:18:30.713Z,15.60
2018-07-09T04:21:00.078Z,15.60
2018-07-09T04:23:28.344Z,15.70
2018-07-09T04:25:56.977Z,15.70
2018-07-09T04:28:25.359Z,15.70
2018-07-09T04:30:53.653Z,15.70
2018-07-09T04:33:21.982Z,15.80
2018-07-09T04:35:50.271Z,15.80
2018-07-09T04:38:18.679Z,15.90
2018-07-09T04:40:47.570Z,15.90
2018-07-09T04:43:15.999Z,15.90
2018-07-09T04:45:44.249Z,16.00
2018-07-09T04:48:12.567Z,16.00
2018-07-09T04:50:41.019Z,16.00
2018-07-09T04:53:09.517Z,16.00
2018-07-09T04:55:37.829Z,16.00
2018-07-09T04:58:06.171Z,16.00
2018-07-09T05:00:34.447Z,16.00
2018-07-09T05:03:02.921Z,16.10
2018-07-09T05:05:31.281Z,16.20
2018-07-09T05:07:59.583Z,16.20
2018-07-09T05:10:27.882Z,16.30
2018-07-09T05:12:56.287Z,16.30
2018-07-09T05:15:24.647Z,16.30
2018-07-09T05:20:21.002Z,16.50
2018-07-09T05:22:49.370Z,16.60
2018-07-09T05:25:17.828Z,16.70
2018-07-09T05:27:46.465Z,16.70
2018-07-09T05:30:14.835Z,16.80
2018-07-09T05:32:43.108Z,16.90
2018-07-09T05:35:11.575Z,16.90
2018-07-09T05:37:40.196Z,17.00
2018-07-09T05:40:08.597Z,17.10
2018-07-09T05:42:37.256Z,17.10
2018-07-09T05:45:21.895Z,17.20
2018-07-09T05:47:51.018Z,17.50
2018-07-09T05:50:19.670Z,17.40
2018-07-09T05:52:49.003Z,17.40
2018-07-09T05:55:18.399Z,17.50
2018-07-09T05:57:47.357Z,17.50
2018-07-09T06:00:17.096Z,17.70
2018-07-09T06:02:45.790Z,17.80
2018-07-09T06:07:44.326Z,17.80
2018-07-09T06:10:13.112Z,17.90
2018-07-09T06:12:41.905Z,17.90
2018-07-09T06:15:11.599Z,17.90
2018-07-09T06:17:40.133Z,18.00
2018-07-09T06:20:13.053Z,18.30
2018-07-09T06:22:41.880Z,18.60
2018-07-09T06:27:38.925Z,19.10
2018-07-09T06:30:07.425Z,19.10
2018-07-09T06:32:36.160Z,18.90
2018-07-09T06:35:04.869Z,18.80
2018-07-09T06:37:33.753Z,18.70
2018-07-09T06:40:02.428Z,18.90
2018-07-09T06:42:31.072Z,18.90
2018-07-09T06:44:59.965Z,18.80
2018-07-09T06:47:32.560Z,18.90
2018-07-09T06:50:01.105Z,19.00
2018-07-09T06:52:29.625Z,19.10
2018-07-09T06:54:59.445Z,19.20
2018-07-09T06:57:28.711Z,19.10
2018-07-09T07:02:25.861Z,19.40
2018-07-09T07:04:56.101Z,19.50
2018-07-09T07:07:24.681Z,19.50
2018-07-09T07:09:54.384Z,19.40
2018-07-09T07:12:23.400Z,19.60
2018-07-09T07:14:52.193Z,19.80
2018-07-09T07:17:20.749Z,20.00
2018-07-09T07:19:50.516Z,20.30
2018-07-09T07:22:20.373Z,20.30
2018-07-09T07:24:49.320Z,20.60
2018-07-09T07:29:47.283Z,20.60
2018-07-09T07:32:15.844Z,21.00
2018-07-09T07:34:44.541Z,21.80
2018-07-09T07:37:13.163Z,22.30
2018-07-09T07:39:42.815Z,22.30
2018-07-09T07:42:11.390Z,22.40
2018-07-09T07:44:41.016Z,22.30
2018-07-09T07:47:09.628Z,22.30
2018-07-09T07:49:38.093Z,22.40
2018-07-09T07:52:06.800Z,22.50
2018-07-09T07:54:35.306Z,21.90
2018-07-09T07:57:03.854Z,21.60
2018-07-09T07:59:32.739Z,21.60
2018-07-09T08:02:01.243Z,21.70
2018-07-09T08:04:29.904Z,21.40
2018-07-09T08:07:01.740Z,21.70
2018-07-09T08:09:30.494Z,21.30
2018-07-09T08:12:59.669Z,20.90
2018-07-09T08:14:31.984Z,21.30
2018-07-09T08:17:00.513Z,21.50
2018-07-09T08:19:30.129Z,21.60
2018-07-09T08:21:58.691Z,22.50
2018-07-09T08:26:57.511Z,22.60
2018-07-09T08:31:54.461Z,22.60
2018-07-09T08:34:23.059Z,22.70
2018-07-09T08:36:53.914Z,22.40
2018-07-09T08:39:23.649Z,22.50
2018-07-09T08:41:54.530Z,22.70
2018-07-09T08:44:23.063Z,22.60
2018-07-09T08:46:51.581Z,23.20
2018-07-09T08:49:23.762Z,23.10
2018-07-09T08:51:52.431Z,23.30
2018-07-09T08:54:21.324Z,23.50
2018-07-09T08:56:50.071Z,23.50
2018-07-09T08:59:18.751Z,23.50
2018-07-09T09:01:48.634Z,23.80
2018-07-09T09:04:17.438Z,24.00
2018-07-09T09:06:46.585Z,24.20
2018-07-09T09:09:15.171Z,24.20
2018-07-09T09:11:43.756Z,24.00
2018-07-09T09:14:12.341Z,23.70
2018-07-09T09:16:41.058Z,23.50
2018-07-09T09:19:09.622Z,23.70
2018-07-09T09:21:38.275Z,23.70
2018-07-09T09:24:07.014Z,23.50
2018-07-09T09:26:35.815Z,23.40
2018-07-09T09:29:04.413Z,23.80
2018-07-09T09:31:33.310Z,24.00
2018-07-09T09:36:31.072Z,23.40
2018-07-09T09:38:59.727Z,23.30
2018-07-09T09:41:29.508Z,23.40
2018-07-09T09:43:58.194Z,23.50
2018-07-09T09:46:26.879Z,23.40
2018-07-09T09:48:55.596Z,23.00
2018-07-09T09:51:24.355Z,23.10
2018-07-09T09:53:52.905Z,23.40
2018-07-09T09:56:21.818Z,23.50
2018-07-09T09:58:50.349Z,23.00
2018-07-09T10:01:19.954Z,23.30
2018-07-09T10:03:48.426Z,23.50
2018-07-09T10:06:17.297Z,23.90
2018-07-09T10:08:45.993Z,23.60
2018-07-09T10:11:14.611Z,23.40
2018-07-09T10:13:43.153Z,23.20
2018-07-09T10:16:12.827Z,23.90
2018-07-09T10:18:41.675Z,23.80
2018-07-09T10:21:10.410Z,23.90
2018-07-09T10:23:39.191Z,24.10
2018-07-09T10:26:11.014Z,24.40
2018-07-09T10:28:39.437Z,24.20
2018-07-09T10:31:08.171Z,24.30
2018-07-09T10:33:39.205Z,24.70
2018-07-09T10:36:12.331Z,25.30
2018-07-09T10:38:42.483Z,25.50
2018-07-09T10:41:11.802Z,26.00
2018-07-09T10:56:38.470Z,25.20
2018-07-09T10:59:14.437Z,24.60
2018-07-09T11:01:48.427Z,24.40
2018-07-09T11:04:35.657Z,23.90
2018-07-09T11:07:10.068Z,23.90
2018-07-09T11:09:45.040Z,23.90
2018-07-09T11:15:12.181Z,23.70
2018-07-09T11:17:51.001Z,24.20
2018-07-09T11:20:25.317Z,24.70
2018-07-09T11:23:00.472Z,24.20
2018-07-09T11:25:36.826Z,24.30
2018-07-09T11:28:16.068Z,24.70
2018-07-09T11:30:55.899Z,24.80
2018-07-09T11:33:34.911Z,25.10
2018-07-09T11:36:11.379Z,24.60
2018-07-09T11:38:45.515Z,24.20
2018-07-09T11:41:19.933Z,24.10
2018-07-09T11:43:54.026Z,24.00
2018-07-09T11:46:30.191Z,23.90
2018-07-09T11:49:07.469Z,23.90
2018-07-09T11:54:47.236Z,23.80
2018-07-09T11:57:23.210Z,24.10
2018-07-09T11:59:59.357Z,24.30
2018-07-09T12:02:39.820Z,24.80
2018-07-09T12:05:20.590Z,25.20
2018-07-09T12:08:13.225Z,25.40
2018-07-09T12:10:48.680Z,25.20
2018-07-09T12:13:25.965Z,25.10
2018-07-09T12:15:59.565Z,25.00
2018-07-09T12:18:33.165Z,24.40
2018-07-09T12:21:02.397Z,24.50
2018-07-09T12:23:30.759Z,23.90
2018-07-09T12:25:59.146Z,23.90
2018-07-09T12:28:27.470Z,24.20
2018-07-09T12:30:55.910Z,24.80
2018-07-09T12:33:24.396Z,24.70
2018-07-09T12:35:52.791Z,24.90
2018-07-09T12:38:21.197Z,24.90
2018-07-09T12:40:50.570Z,24.50
2018-07-09T12:43:19.078Z,24.60
2018-07-09T18:19:41.476Z,18.30
2018-07-09T18:22:09.830Z,18.40
2018-07-09T18:24:38.355Z,18.40
2018-07-09T18:27:20.641Z,18.60
2018-07-09T18:29:49.294Z,18.60
2018-07-09T18:32:17.659Z,18.50
2018-07-09T18:34:46.376Z,18.40
2018-07-09T18:39:43.223Z,18.40
2018-07-09T18:42:11.512Z,18.40
2018-07-09T18:47:08.317Z,18.40
2018-07-09T18:49:48.414Z,18.40
